Wavre, Belgium
Current Conditions -  °F | °C
As of 11:25 AM on Sunday 25 Jan 2015 (Local Time) from EBBE Reporting Station
Overcast Overcast  
Wind Chill: 30°   Ceiling: 2100
Heat Index: 36°   Visibility: 4mi
Dew Point: 34°   Wind: 7mph
Humidity: 93%   Direction: 240°WSW
Pressure: 30.45"   Gusts: NA
Location:  50.72°N, 4.6°E
Report Text: EBBE 251025Z AUTO 24006KT 7000 FEW018/// BKN021/// OVC110/// 02/01 Q1031 WHT
Loading
Personal Weather Stations






























Interactive Weather Map New forecast layout! Learn more

10-Day Weather Forecast

Advertisements
Track Severe Weather on mobile